createdAt,value
2023-03-17T00:01:54.716Z,7.06
2023-03-17T00:04:26.584Z,7.04
2023-03-17T00:06:55.014Z,7.00
2023-03-17T00:09:22.304Z,6.96
2023-03-17T00:11:49.989Z,6.90
2023-03-17T00:14:16.742Z,6.82
2023-03-17T00:16:48.382Z,6.77
2023-03-17T00:19:17.097Z,6.73
2023-03-17T00:21:45.982Z,6.69
2023-03-17T00:24:14.903Z,6.70
2023-03-17T00:26:42.483Z,6.73
2023-03-17T00:29:09.029Z,6.70
2023-03-17T00:31:36.266Z,6.66
2023-03-17T00:34:02.837Z,6.64
2023-03-17T00:36:32.921Z,6.61
2023-03-17T00:39:00.220Z,6.54
2023-03-17T00:41:27.274Z,6.51
2023-03-17T00:43:54.010Z,6.48
2023-03-17T00:46:35.334Z,6.43
2023-03-17T00:49:03.158Z,6.36
2023-03-17T00:51:29.532Z,6.33
2023-03-17T00:53:56.570Z,6.32
2023-03-17T00:56:23.130Z,6.30
2023-03-17T00:58:49.735Z,6.26
2023-03-17T01:01:16.607Z,6.25
2023-03-17T01:03:43.028Z,6.21
2023-03-17T01:06:12.638Z,6.16
2023-03-17T01:08:40.602Z,6.14
2023-03-17T01:11:07.656Z,6.13
2023-03-17T01:13:34.277Z,6.11
2023-03-17T01:16:01.069Z,6.11
2023-03-17T01:18:27.564Z,6.09
2023-03-17T01:20:53.981Z,6.10
2023-03-17T01:23:20.422Z,6.18
2023-03-17T01:25:46.782Z,6.20
2023-03-17T01:28:15.140Z,6.21
2023-03-17T01:30:42.399Z,6.22
2023-03-17T01:33:10.495Z,6.22
2023-03-17T01:35:38.334Z,6.25
2023-03-17T01:38:06.405Z,6.27
2023-03-17T01:40:35.965Z,6.27
2023-03-17T01:43:17.409Z,6.25
2023-03-17T01:46:25.208Z,6.19
2023-03-17T01:49:05.601Z,6.11
2023-03-17T01:51:57.561Z,6.06
2023-03-17T01:54:30.204Z,6.00
2023-03-17T01:57:09.247Z,5.94
2023-03-17T01:59:40.890Z,5.89
2023-03-17T02:02:12.343Z,5.84
2023-03-17T02:04:40.201Z,5.80
2023-03-17T02:07:06.699Z,5.76
2023-03-17T02:09:34.301Z,5.74
2023-03-17T02:12:02.528Z,5.70
2023-03-17T02:14:29.265Z,5.64
2023-03-17T02:16:56.159Z,5.61
2023-03-17T02:19:22.698Z,5.57
2023-03-17T02:21:54.499Z,5.58
2023-03-17T02:24:32.665Z,5.54
2023-03-17T02:27:15.972Z,5.53
2023-03-17T02:29:46.148Z,5.54
2023-03-17T02:32:14.993Z,5.54
2023-03-17T02:34:41.414Z,5.54
2023-03-17T02:37:08.406Z,5.51
2023-03-17T02:39:35.093Z,5.53
2023-03-17T02:42:01.916Z,5.55
2023-03-17T02:44:28.303Z,5.56
2023-03-17T02:46:54.686Z,5.58
2023-03-17T02:49:22.117Z,5.57
2023-03-17T02:51:48.613Z,5.56
2023-03-17T02:54:15.030Z,5.57
2023-03-17T02:56:42.098Z,5.58
2023-03-17T02:59:09.159Z,5.59
2023-03-17T03:01:35.611Z,5.59
2023-03-17T03:04:02.488Z,5.62
2023-03-17T03:06:28.880Z,5.66
2023-03-17T03:08:55.381Z,5.67
2023-03-17T03:11:21.778Z,5.68
2023-03-17T03:13:48.282Z,5.68
2023-03-17T03:16:15.267Z,5.68
2023-03-17T03:18:41.665Z,5.72
2023-03-17T03:21:08.334Z,5.75
2023-03-17T03:23:34.735Z,5.76
2023-03-17T03:26:02.196Z,5.78
2023-03-17T03:28:28.602Z,5.79
2023-03-17T03:30:55.271Z,5.78
2023-03-17T03:33:21.695Z,5.80
2023-03-17T03:35:48.113Z,5.80
2023-03-17T03:38:14.618Z,5.82
2023-03-17T03:40:41.293Z,5.87
2023-03-17T03:43:21.917Z,5.88
2023-03-17T03:45:49.646Z,5.91
2023-03-17T03:48:16.193Z,5.97
2023-03-17T03:50:42.619Z,6.02
2023-03-17T03:53:09.042Z,6.09
2023-03-17T03:55:35.570Z,6.14
2023-03-17T03:58:01.922Z,6.16
2023-03-17T04:00:28.737Z,6.19
2023-03-17T04:02:55.443Z,6.23
2023-03-17T04:05:22.152Z,6.25
2023-03-17T04:07:48.643Z,6.27
2023-03-17T04:10:16.356Z,6.30
2023-03-17T04:12:43.365Z,6.30
2023-03-17T04:15:13.728Z,6.35
2023-03-17T04:17:40.100Z,6.39
2023-03-17T04:20:06.970Z,6.42
2023-03-17T04:22:33.434Z,6.45
2023-03-17T04:24:59.829Z,6.46
2023-03-17T04:27:26.759Z,6.44
2023-03-17T04:29:53.743Z,6.47
2023-03-17T04:32:20.350Z,6.50
2023-03-17T04:34:46.740Z,6.51
2023-03-17T04:37:13.697Z,6.55
2023-03-17T04:39:40.337Z,6.54
2023-03-17T04:42:07.564Z,6.57
2023-03-17T04:44:34.427Z,6.63
2023-03-17T04:47:00.850Z,6.67
2023-03-17T04:49:27.220Z,6.69
2023-03-17T04:51:53.879Z,6.69
2023-03-17T04:54:21.236Z,6.67
2023-03-17T04:56:47.725Z,6.64
2023-03-17T04:59:14.400Z,6.64
2023-03-17T05:01:41.056Z,6.65
2023-03-17T05:04:08.034Z,6.67
2023-03-17T05:06:34.514Z,6.67
2023-03-17T05:09:00.913Z,6.67
2023-03-17T05:11:27.359Z,6.68
2023-03-17T05:13:53.748Z,6.70
2023-03-17T05:16:21.925Z,6.72
2023-03-17T05:18:48.487Z,6.74
2023-03-17T05:21:15.555Z,6.74
2023-03-17T05:23:41.972Z,6.72
2023-03-17T05:26:08.496Z,6.70
2023-03-17T05:28:34.915Z,6.69
2023-03-17T05:31:01.380Z,6.68
2023-03-17T05:33:28.894Z,6.66
2023-03-17T05:35:55.609Z,6.66
2023-03-17T05:38:22.089Z,6.67
2023-03-17T05:40:52.645Z,6.66
2023-03-17T05:43:19.152Z,6.66
2023-03-17T05:45:47.182Z,6.61
2023-03-17T05:48:13.597Z,6.58
2023-03-17T05:50:41.496Z,6.58
2023-03-17T05:53:08.143Z,6.59
2023-03-17T05:55:34.547Z,6.56
2023-03-17T05:58:01.337Z,6.54
2023-03-17T06:00:29.332Z,6.55
2023-03-17T06:02:55.919Z,6.56
2023-03-17T06:05:22.370Z,6.56
2023-03-17T06:07:54.872Z,6.58
2023-03-17T06:10:24.155Z,6.59
2023-03-17T06:12:50.593Z,6.65
2023-03-17T06:15:18.932Z,6.67
2023-03-17T06:17:45.647Z,6.71
2023-03-17T06:20:13.064Z,6.76
2023-03-17T06:22:46.262Z,6.78
2023-03-17T06:25:18.893Z,6.83
2023-03-17T06:27:45.310Z,6.87
2023-03-17T06:30:12.387Z,6.92
2023-03-17T06:32:38.887Z,6.92
2023-03-17T06:35:05.910Z,6.93
2023-03-17T06:37:32.284Z,6.96
2023-03-17T06:40:00.784Z,7.01
2023-03-17T06:42:27.920Z,7.06
2023-03-17T06:44:55.567Z,7.09
2023-03-17T06:47:24.692Z,7.13
2023-03-17T06:49:52.810Z,7.21
2023-03-17T06:52:19.778Z,7.29
2023-03-17T06:54:46.191Z,7.40
2023-03-17T06:57:12.845Z,7.48
2023-03-17T06:59:39.305Z,7.52
2023-03-17T07:02:05.836Z,7.56
2023-03-17T07:04:32.514Z,7.62
2023-03-17T07:06:58.960Z,7.68
2023-03-17T07:09:25.352Z,7.72
2023-03-17T07:11:51.982Z,7.77
2023-03-17T07:14:18.837Z,7.85
2023-03-17T07:16:45.390Z,7.88
2023-03-17T07:19:12.146Z,7.91
2023-03-17T07:21:38.529Z,7.97
2023-03-17T07:24:05.168Z,8.03
2023-03-17T07:26:31.641Z,8.10
2023-03-17T07:29:00.887Z,8.14
2023-03-17T07:31:28.291Z,8.19
2023-03-17T07:33:57.271Z,8.30
2023-03-17T07:36:23.734Z,8.42
2023-03-17T07:38:50.164Z,8.51
2023-03-17T07:41:16.532Z,8.61
2023-03-17T07:43:43.369Z,8.67
2023-03-17T07:46:09.879Z,8.71
2023-03-17T07:48:40.766Z,8.70
2023-03-17T07:51:12.662Z,8.71
2023-03-17T07:53:39.175Z,8.71
2023-03-17T07:56:05.965Z,8.73
2023-03-17T07:58:32.648Z,8.76
2023-03-17T08:00:59.064Z,8.81
2023-03-17T08:03:25.543Z,8.84
2023-03-17T08:05:55.287Z,8.90
2023-03-17T08:08:23.061Z,9.00
2023-03-17T08:10:50.811Z,9.13
2023-03-17T08:13:18.786Z,9.21
2023-03-17T08:15:46.572Z,9.28
2023-03-17T08:18:13.463Z,9.43
2023-03-17T08:20:40.729Z,9.54
2023-03-17T08:23:07.351Z,9.65
2023-03-17T08:25:33.871Z,9.81
2023-03-17T08:28:00.739Z,9.94
2023-03-17T08:30:27.491Z,9.98
2023-03-17T08:32:54.614Z,10.07
2023-03-17T08:35:21.278Z,10.15
2023-03-17T08:37:48.088Z,10.18
2023-03-17T08:40:23.895Z,10.27
2023-03-17T08:42:55.708Z,10.42
2023-03-17T08:45:22.991Z,10.53
2023-03-17T08:47:49.638Z,10.59
2023-03-17T08:50:19.997Z,10.68
2023-03-17T08:52:46.975Z,10.75
2023-03-17T08:55:14.414Z,10.71
2023-03-17T08:57:41.199Z,10.76
2023-03-17T09:00:11.215Z,10.75
2023-03-17T09:02:39.544Z,10.76
2023-03-17T09:05:07.375Z,10.78
2023-03-17T09:07:34.126Z,10.78
2023-03-17T09:10:00.724Z,10.84
2023-03-17T09:12:27.381Z,10.97
2023-03-17T09:14:54.658Z,11.06
2023-03-17T09:17:21.738Z,11.08
2023-03-17T09:19:48.467Z,11.25
2023-03-17T09:22:18.823Z,11.37
2023-03-17T09:24:46.545Z,11.41
2023-03-17T09:27:13.788Z,11.40
2023-03-17T09:29:42.052Z,11.43
2023-03-17T09:32:09.488Z,11.49
2023-03-17T09:34:36.107Z,11.62
2023-03-17T09:37:02.768Z,11.62
2023-03-17T09:39:29.381Z,11.69
2023-03-17T09:42:21.376Z,11.76
2023-03-17T09:44:57.246Z,11.76
2023-03-17T09:47:49.993Z,11.83
2023-03-17T09:50:23.959Z,11.91
2023-03-17T09:52:52.297Z,12.04
2023-03-17T09:55:31.202Z,12.08
2023-03-17T09:57:58.885Z,12.16
2023-03-17T10:00:29.139Z,12.35
2023-03-17T10:02:58.000Z,12.53
2023-03-17T10:05:50.953Z,12.47
2023-03-17T10:08:31.695Z,12.44
2023-03-17T10:11:13.380Z,12.43
2023-03-17T10:13:49.033Z,12.26
2023-03-17T10:16:21.906Z,12.20
2023-03-17T10:18:58.471Z,12.26
2023-03-17T10:21:51.605Z,12.19
2023-03-17T10:24:19.383Z,12.15
2023-03-17T10:26:58.075Z,12.13
2023-03-17T10:29:25.321Z,12.17
2023-03-17T10:31:55.793Z,12.37
2023-03-17T10:34:24.091Z,12.79
2023-03-17T10:36:55.330Z,13.04
2023-03-17T10:39:24.572Z,12.92
2023-03-17T10:42:00.363Z,13.02
2023-03-17T10:44:40.656Z,13.01
2023-03-17T10:47:22.639Z,12.88
2023-03-17T10:49:49.460Z,12.92
2023-03-17T10:52:23.099Z,13.13
2023-03-17T10:54:54.407Z,13.26
2023-03-17T10:57:22.098Z,13.63
2023-03-17T10:59:53.416Z,13.97
2023-03-17T11:02:25.566Z,14.14
2023-03-17T11:05:17.238Z,14.16
2023-03-17T11:07:45.235Z,14.10
2023-03-17T11:10:27.298Z,14.20
2023-03-17T11:13:01.813Z,14.18
2023-03-17T11:15:35.793Z,14.28
2023-03-17T11:18:16.904Z,14.26
2023-03-17T11:21:26.613Z,14.27
2023-03-17T11:23:57.911Z,14.26
2023-03-17T11:26:42.990Z,14.26
2023-03-17T11:29:24.458Z,14.25
2023-03-17T11:32:32.602Z,14.31
2023-03-17T11:35:36.589Z,14.39
2023-03-17T11:38:26.748Z,14.47
2023-03-17T11:41:11.433Z,14.64
2023-03-17T11:43:53.943Z,14.96
2023-03-17T11:46:41.950Z,14.90
2023-03-17T11:49:34.536Z,15.03
2023-03-17T11:52:19.742Z,14.89
2023-03-17T11:54:59.011Z,14.81
2023-03-17T11:57:34.067Z,14.96
2023-03-17T12:00:29.993Z,15.05
2023-03-17T12:03:20.749Z,15.02
2023-03-17T12:05:51.991Z,15.01
2023-03-17T12:08:37.655Z,15.08
2023-03-17T12:11:09.188Z,15.22
2023-03-17T12:13:45.915Z,15.26
2023-03-17T12:16:21.254Z,15.27
2023-03-17T12:19:04.742Z,15.36
2023-03-17T12:21:42.124Z,15.36
2023-03-17T12:24:31.392Z,15.25
2023-03-17T12:27:20.002Z,15.40
2023-03-17T12:29:53.257Z,15.56
2023-03-17T12:32:36.053Z,15.68
2023-03-17T12:35:22.111Z,15.66
2023-03-17T12:37:49.292Z,15.47
2023-03-17T12:40:25.897Z,15.55
2023-03-17T12:43:17.374Z,15.68
2023-03-17T12:45:59.819Z,15.66
2023-03-17T12:48:29.435Z,15.62
2023-03-17T12:51:07.963Z,15.70
2023-03-17T12:53:38.855Z,15.78
2023-03-17T12:56:27.384Z,15.65
2023-03-17T12:59:13.142Z,15.56
2023-03-17T13:01:44.593Z,15.55
2023-03-17T13:04:25.841Z,15.61
2023-03-17T13:07:03.664Z,15.67
2023-03-17T13:09:33.093Z,15.74
2023-03-17T13:12:55.038Z,15.78
2023-03-17T13:15:49.348Z,15.77
2023-03-17T13:18:15.996Z,15.76
2023-03-17T13:20:57.514Z,15.76
2023-03-17T13:23:55.898Z,15.72
2023-03-17T13:27:01.894Z,15.67
2023-03-17T13:29:32.187Z,15.53
2023-03-17T13:32:19.497Z,15.66
2023-03-17T13:34:52.741Z,15.67
2023-03-17T13:37:29.468Z,15.67
2023-03-17T13:40:21.390Z,15.70
2023-03-17T13:43:00.182Z,15.77
2023-03-17T13:45:43.900Z,15.81
2023-03-17T13:48:36.533Z,15.88
2023-03-17T13:51:19.282Z,15.83
2023-03-17T13:53:51.344Z,15.83
2023-03-17T13:56:22.343Z,15.83
2023-03-17T13:59:05.167Z,15.68
2023-03-17T14:01:54.967Z,15.66
2023-03-17T14:04:39.885Z,15.63
2023-03-17T14:07:14.690Z,15.77
2023-03-17T14:09:42.136Z,15.92
2023-03-17T14:12:52.151Z,15.96
2023-03-17T14:15:24.496Z,15.92
2023-03-17T14:17:57.512Z,15.84
2023-03-17T14:20:26.981Z,15.73
2023-03-17T14:22:56.678Z,15.74
2023-03-17T14:25:25.469Z,15.74
2023-03-17T14:27:55.237Z,15.92
2023-03-17T14:30:23.468Z,16.03
2023-03-17T14:33:07.344Z,16.03
2023-03-17T14:35:39.023Z,15.94
2023-03-17T14:38:19.827Z,15.94
2023-03-17T14:40:47.280Z,16.05
2023-03-17T14:43:14.981Z,16.15
2023-03-17T14:45:53.029Z,16.29
2023-03-17T14:48:27.214Z,16.25
2023-03-17T14:50:56.322Z,16.18
2023-03-17T14:53:24.215Z,16.17
2023-03-17T14:55:52.763Z,16.19
2023-03-17T14:58:26.720Z,16.14
2023-03-17T15:01:17.132Z,16.10
2023-03-17T15:04:04.975Z,16.11
2023-03-17T15:06:33.587Z,16.16
2023-03-17T15:09:19.431Z,16.14
2023-03-17T15:11:47.541Z,16.10
2023-03-17T15:14:28.081Z,16.06
2023-03-17T15:16:55.787Z,16.03
2023-03-17T15:19:36.081Z,16.03
2023-03-17T15:22:20.798Z,16.01
2023-03-17T15:25:09.937Z,15.91
2023-03-17T15:27:36.301Z,15.92
2023-03-17T15:30:03.169Z,15.97
2023-03-17T15:32:30.037Z,15.97
2023-03-17T15:34:57.140Z,15.99
2023-03-17T15:37:30.039Z,16.01
2023-03-17T15:39:57.451Z,15.97
2023-03-17T15:42:26.335Z,15.94
2023-03-17T15:44:53.838Z,15.94
2023-03-17T15:47:22.707Z,15.85
2023-03-17T15:49:50.346Z,15.80
2023-03-17T15:52:21.646Z,15.75
2023-03-17T15:54:49.366Z,15.73
2023-03-17T15:57:16.439Z,15.72
2023-03-17T15:59:43.200Z,15.69
2023-03-17T16:02:31.997Z,15.62
2023-03-17T16:05:05.259Z,15.56
2023-03-17T16:07:31.823Z,15.52
2023-03-17T16:09:58.405Z,15.50
2023-03-17T16:12:24.876Z,15.49
2023-03-17T16:14:51.487Z,15.45
2023-03-17T16:17:26.695Z,15.41
2023-03-17T16:19:53.322Z,15.38
2023-03-17T16:22:41.700Z,15.35
2023-03-17T16:25:31.341Z,15.28
2023-03-17T16:28:00.702Z,15.25
2023-03-17T16:30:32.666Z,15.21
2023-03-17T16:33:19.583Z,15.17
2023-03-17T16:35:48.783Z,15.12
2023-03-17T16:38:17.753Z,15.06
2023-03-17T16:40:52.782Z,15.02
2023-03-17T16:43:33.248Z,14.98
2023-03-17T16:46:02.972Z,14.95
2023-03-17T16:48:31.000Z,14.90
2023-03-17T16:50:58.106Z,14.84
2023-03-17T16:53:24.969Z,14.77
2023-03-17T16:55:53.912Z,14.72
2023-03-17T16:58:26.292Z,14.68
2023-03-17T17:00:57.445Z,14.63
2023-03-17T17:03:24.252Z,14.58
2023-03-17T17:05:50.955Z,14.55
2023-03-17T17:08:17.405Z,14.53
2023-03-17T17:10:43.773Z,14.48
2023-03-17T17:13:11.687Z,14.44
2023-03-17T17:15:38.948Z,14.41
2023-03-17T17:18:12.899Z,14.39
2023-03-17T17:20:40.120Z,14.36
2023-03-17T17:23:11.718Z,14.33
2023-03-17T17:25:38.270Z,14.28
2023-03-17T17:28:06.070Z,14.24
2023-03-17T17:30:33.100Z,14.18
2023-03-17T17:33:01.747Z,14.15
2023-03-17T17:35:32.527Z,14.12
2023-03-17T17:38:00.553Z,14.10
2023-03-17T17:40:29.190Z,14.10
2023-03-17T17:42:55.960Z,14.09
2023-03-17T17:45:22.666Z,14.09
2023-03-17T17:47:50.269Z,14.05
2023-03-17T17:50:26.269Z,14.01
2023-03-17T17:52:53.078Z,13.97
2023-03-17T17:55:20.376Z,13.95
2023-03-17T17:57:46.984Z,13.93
2023-03-17T18:00:16.690Z,13.86
2023-03-17T18:02:44.455Z,13.80
2023-03-17T18:05:12.354Z,13.75
2023-03-17T18:07:39.678Z,13.71
2023-03-17T18:10:06.953Z,13.66
2023-03-17T18:12:33.543Z,13.62
2023-03-17T18:15:00.194Z,13.60
2023-03-17T18:17:27.248Z,13.59
2023-03-17T18:19:53.950Z,13.57
2023-03-17T18:22:21.548Z,13.58
2023-03-17T18:24:48.511Z,13.59
2023-03-17T18:27:15.710Z,13.59
2023-03-17T18:29:43.341Z,13.56
2023-03-17T18:32:11.598Z,13.54
2023-03-17T18:34:43.426Z,13.51
2023-03-17T18:37:13.398Z,13.49
2023-03-17T18:39:41.105Z,13.45
2023-03-17T18:42:09.185Z,13.44
2023-03-17T18:44:36.311Z,13.41
2023-03-17T18:47:03.525Z,13.39
2023-03-17T18:49:30.619Z,13.38
2023-03-17T18:51:59.440Z,13.37
2023-03-17T18:54:27.626Z,13.36
2023-03-17T18:56:55.289Z,13.35
2023-03-17T18:59:21.838Z,13.32
2023-03-17T19:01:48.384Z,13.30
2023-03-17T19:04:15.521Z,13.24
2023-03-17T19:06:42.678Z,13.14
2023-03-17T19:09:10.622Z,13.10
2023-03-17T19:11:39.206Z,13.14
2023-03-17T19:14:06.921Z,13.15
2023-03-17T19:16:34.002Z,13.10
2023-03-17T19:19:01.602Z,13.09
2023-03-17T19:21:28.251Z,13.11
2023-03-17T19:23:55.136Z,13.13
2023-03-17T19:26:21.609Z,13.10
2023-03-17T19:28:48.145Z,13.09
2023-03-17T19:31:14.747Z,13.09
2023-03-17T19:33:41.141Z,13.10
2023-03-17T19:36:12.403Z,13.10
2023-03-17T19:38:39.819Z,13.12
2023-03-17T19:41:06.764Z,13.15
2023-03-17T19:43:40.770Z,13.18
2023-03-17T19:46:10.336Z,13.19
2023-03-17T19:48:37.387Z,13.21
2023-03-17T19:51:05.014Z,13.22
2023-03-17T19:53:31.748Z,13.20
2023-03-17T19:55:58.317Z,13.15
2023-03-17T19:58:25.249Z,13.18
2023-03-17T20:00:51.866Z,13.18
2023-03-17T20:03:18.851Z,13.14
2023-03-17T20:05:46.373Z,13.11
2023-03-17T20:08:14.540Z,13.10
2023-03-17T20:10:41.248Z,13.06
2023-03-17T20:13:08.001Z,13.03
2023-03-17T20:15:34.817Z,13.02
2023-03-17T20:18:01.665Z,13.01
2023-03-17T20:20:28.327Z,12.99
2023-03-17T20:22:54.925Z,13.05
2023-03-17T20:25:21.827Z,13.15
2023-03-17T20:27:48.613Z,13.23
2023-03-17T20:30:15.296Z,13.26
2023-03-17T20:32:41.953Z,13.30
2023-03-17T20:35:08.948Z,13.34
2023-03-17T20:37:35.770Z,13.34
2023-03-17T20:40:04.711Z,13.35
2023-03-17T20:42:31.486Z,13.31
2023-03-17T20:44:58.966Z,13.28
2023-03-17T20:47:26.559Z,13.28
2023-03-17T20:49:57.750Z,13.27
2023-03-17T20:52:29.487Z,13.28
2023-03-17T20:54:56.464Z,13.23
2023-03-17T20:57:23.013Z,13.21
2023-03-17T20:59:51.192Z,13.16
2023-03-17T21:02:18.574Z,13.12
2023-03-17T21:04:48.094Z,13.11
2023-03-17T21:07:19.776Z,13.09
2023-03-17T21:09:46.961Z,13.06
2023-03-17T21:12:19.482Z,13.03
2023-03-17T21:14:48.180Z,13.02
2023-03-17T21:17:16.254Z,13.02
2023-03-17T21:19:44.033Z,13.05
2023-03-17T21:22:11.196Z,13.06
2023-03-17T21:24:39.705Z,13.04
2023-03-17T21:27:09.882Z,13.03
2023-03-17T21:29:37.754Z,12.99
2023-03-17T21:32:05.249Z,12.94
2023-03-17T21:34:32.021Z,12.92
2023-03-17T21:36:59.699Z,12.90
2023-03-17T21:39:29.425Z,12.88
2023-03-17T21:41:57.473Z,12.86
2023-03-17T21:44:24.139Z,12.86
2023-03-17T21:46:50.826Z,12.83
2023-03-17T21:49:18.608Z,12.82
2023-03-17T21:51:46.750Z,12.82
2023-03-17T21:54:14.280Z,12.82
2023-03-17T21:56:41.660Z,12.81
2023-03-17T21:59:10.992Z,12.79
2023-03-17T22:01:39.568Z,12.76
2023-03-17T22:04:07.579Z,12.74
2023-03-17T22:06:34.124Z,12.73
2023-03-17T22:09:01.032Z,12.72
2023-03-17T22:11:27.664Z,12.69
2023-03-17T22:13:54.096Z,12.67
2023-03-17T22:16:21.602Z,12.65
2023-03-17T22:18:48.405Z,12.63
2023-03-17T22:21:14.917Z,12.63
2023-03-17T22:23:42.213Z,12.60
2023-03-17T22:26:12.414Z,12.57
2023-03-17T22:28:39.405Z,12.57
2023-03-17T22:31:27.542Z,12.53
2023-03-17T22:33:56.710Z,12.50
2023-03-17T22:36:24.513Z,12.50
2023-03-17T22:38:51.054Z,12.46
2023-03-17T22:41:20.427Z,12.44
2023-03-17T22:43:47.177Z,12.45
2023-03-17T22:46:14.727Z,12.45
2023-03-17T22:48:41.198Z,12.47
2023-03-17T22:51:10.840Z,12.44
2023-03-17T22:53:38.239Z,12.44
2023-03-17T22:56:06.065Z,12.43
2023-03-17T22:58:33.288Z,12.42
2023-03-17T23:01:00.297Z,12.43
2023-03-17T23:03:29.473Z,12.42
2023-03-17T23:05:58.397Z,12.42
2023-03-17T23:08:26.729Z,12.40
2023-03-17T23:10:53.958Z,12.38
2023-03-17T23:13:20.937Z,12.38
2023-03-17T23:15:47.576Z,12.36
2023-03-17T23:18:14.194Z,12.32
2023-03-17T23:20:41.825Z,12.22
2023-03-17T23:23:09.957Z,12.14
2023-03-17T23:25:38.054Z,12.05
2023-03-17T23:28:05.259Z,11.98
2023-03-17T23:30:32.297Z,11.95
2023-03-17T23:32:59.157Z,11.93
2023-03-17T23:35:25.920Z,11.94
2023-03-17T23:37:52.295Z,11.93
2023-03-17T23:40:18.850Z,11.89
2023-03-17T23:42:50.121Z,11.85
2023-03-17T23:45:18.011Z,11.79
2023-03-17T23:47:46.620Z,11.76
2023-03-17T23:50:14.383Z,11.73
2023-03-17T23:52:42.372Z,11.72
2023-03-17T23:55:11.695Z,11.71
2023-03-17T23:57:39.003Z,11.69
